sensor_id;sensor_type;location;lat;lon;timestamp;pressure;altitude;pressure_sealevel;temperature;humidity
13968;BME280;39536;52.198;9.920;2023-03-11T00:00:23;99064.28;;;-0.35;100.00
13968;BME280;39536;52.198;9.920;2023-03-11T00:02:51;99078.81;;;-0.39;100.00
13968;BME280;39536;52.198;9.920;2023-03-11T00:05:21;99104.41;;;-0.37;100.00
13968;BME280;39536;52.198;9.920;2023-03-11T00:07:48;99106.16;;;-0.44;100.00
13968;BME280;39536;52.198;9.920;2023-03-11T00:10:17;99118.09;;;-0.43;100.00
13968;BME280;39536;52.198;9.920;2023-03-11T00:12:43;99132.56;;;-0.42;100.00
13968;BME280;39536;52.198;9.920;2023-03-11T00:15:10;99113.78;;;-0.41;100.00
13968;BME280;39536;52.198;9.920;2023-03-11T00:17:37;99123.19;;;-0.40;100.00
13968;BME280;39536;52.198;9.920;2023-03-11T00:20:06;99136.78;;;-0.38;100.00
13968;BME280;39536;52.198;9.920;2023-03-11T00:22:34;99143.59;;;-0.38;100.00
13968;BME280;39536;52.198;9.920;2023-03-11T00:25:00;99159.00;;;-0.40;100.00
13968;BME280;39536;52.198;9.920;2023-03-11T00:27:27;99154.72;;;-0.39;100.00
13968;BME280;39536;52.198;9.920;2023-03-11T00:29:54;99155.59;;;-0.40;100.00
13968;BME280;39536;52.198;9.920;2023-03-11T00:32:20;99164.03;;;-0.35;100.00
13968;BME280;39536;52.198;9.920;2023-03-11T00:34:47;99169.16;;;-0.35;100.00
13968;BME280;39536;52.198;9.920;2023-03-11T00:37:13;99175.16;;;-0.36;100.00
13968;BME280;39536;52.198;9.920;2023-03-11T00:39:41;99179.41;;;-0.37;100.00
13968;BME280;39536;52.198;9.920;2023-03-11T00:42:08;99183.66;;;-0.34;100.00
13968;BME280;39536;52.198;9.920;2023-03-11T00:44:34;99193.91;;;-0.34;100.00
13968;BME280;39536;52.198;9.920;2023-03-11T00:47:01;99194.78;;;-0.37;100.00
13968;BME280;39536;52.198;9.920;2023-03-11T00:49:27;99203.31;;;-0.39;100.00
13968;BME280;39536;52.198;9.920;2023-03-11T00:51:54;99211.84;;;-0.37;100.00
13968;BME280;39536;52.198;9.920;2023-03-11T00:54:20;99216.91;;;-0.34;100.00
13968;BME280;39536;52.198;9.920;2023-03-11T00:56:48;99223.78;;;-0.39;100.00
13968;BME280;39536;52.198;9.920;2023-03-11T00:59:15;99216.06;;;-0.38;100.00
13968;BME280;39536;52.198;9.920;2023-03-11T01:01:41;99223.78;;;-0.41;100.00
13968;BME280;39536;52.198;9.920;2023-03-11T01:04:08;99210.94;;;-0.35;100.00
13968;BME280;39536;52.198;9.920;2023-03-11T01:06:34;99210.13;;;-0.37;100.00
13968;BME280;39536;52.198;9.920;2023-03-11T01:09:01;99234.84;;;-0.37;100.00
13968;BME280;39536;52.198;9.920;2023-03-11T01:11:28;99251.03;;;-0.37;100.00
13968;BME280;39536;52.198;9.920;2023-03-11T01:13:57;99246.75;;;-0.35;100.00
13968;BME280;39536;52.198;9.920;2023-03-11T01:16:23;99268.94;;;-0.34;100.00
13968;BME280;39536;52.198;9.920;2023-03-11T01:18:50;99249.31;;;-0.35;100.00
13968;BME280;39536;52.198;9.920;2023-03-11T01:21:17;99257.84;;;-0.36;100.00
13968;BME280;39536;52.198;9.920;2023-03-11T01:23:43;99259.53;;;-0.35;100.00
13968;BME280;39536;52.198;9.920;2023-03-11T01:26:10;99259.59;;;-0.39;100.00
13968;BME280;39536;52.198;9.920;2023-03-11T01:28:36;99297.13;;;-0.40;100.00
13968;BME280;39536;52.198;9.920;2023-03-11T01:31:04;99286.06;;;-0.45;100.00
13968;BME280;39536;52.198;9.920;2023-03-11T01:33:31;99298.00;;;-0.47;100.00
13968;BME280;39536;52.198;9.920;2023-03-11T01:35:57;99293.75;;;-0.45;100.00
13968;BME280;39536;52.198;9.920;2023-03-11T01:38:24;99299.69;;;-0.43;100.00
13968;BME280;39536;52.198;9.920;2023-03-11T01:40:51;99298.00;;;-0.45;100.00
13968;BME280;39536;52.198;9.920;2023-03-11T01:43:38;99299.66;;;-0.41;100.00
13968;BME280;39536;52.198;9.920;2023-03-11T01:46:10;99314.19;;;-0.42;100.00
13968;BME280;39536;52.198;9.920;2023-03-11T01:48:37;99322.66;;;-0.38;100.00
13968;BME280;39536;52.198;9.920;2023-03-11T01:51:04;99303.09;;;-0.44;100.00
13968;BME280;39536;52.198;9.920;2023-03-11T01:53:31;99326.97;;;-0.42;100.00
13968;BME280;39536;52.198;9.920;2023-03-11T01:56:00;99337.19;;;-0.39;100.00
13968;BME280;39536;52.198;9.920;2023-03-11T01:58:31;99329.53;;;-0.42;100.00
13968;BME280;39536;52.198;9.920;2023-03-11T02:01:00;99355.09;;;-0.42;100.00
13968;BME280;39536;52.198;9.920;2023-03-11T02:03:30;99355.91;;;-0.35;100.00
13968;BME280;39536;52.198;9.920;2023-03-11T02:06:00;99349.97;;;-0.37;100.00
13968;BME280;39536;52.198;9.920;2023-03-11T02:08:27;99340.59;;;-0.37;100.00
13968;BME280;39536;52.198;9.920;2023-03-11T02:10:58;99367.00;;;-0.36;100.00
13968;BME280;39536;52.198;9.920;2023-03-11T02:13:25;99365.31;;;-0.37;100.00
13968;BME280;39536;52.198;9.920;2023-03-11T02:15:52;99366.16;;;-0.38;100.00
13968;BME280;39536;52.198;9.920;2023-03-11T02:18:19;99374.69;;;-0.38;100.00
13968;BME280;39536;52.198;9.920;2023-03-11T02:20:51;99364.41;;;-0.35;100.00
13968;BME280;39536;52.198;9.920;2023-03-11T02:23:22;99378.09;;;-0.39;100.00
13968;BME280;39536;52.198;9.920;2023-03-11T02:25:54;99369.56;;;-0.38;100.00
13968;BME280;39536;52.198;9.920;2023-03-11T02:28:27;99388.31;;;-0.36;100.00
13968;BME280;39536;52.198;9.920;2023-03-11T02:30:54;99387.50;;;-0.39;100.00
13968;BME280;39536;52.198;9.920;2023-03-11T02:33:22;99383.19;;;-0.36;100.00
13968;BME280;39536;52.198;9.920;2023-03-11T02:35:50;99389.19;;;-0.38;100.00
13968;BME280;39536;52.198;9.920;2023-03-11T02:38:16;99401.97;;;-0.37;100.00
13968;BME280;39536;52.198;9.920;2023-03-11T02:40:48;99404.53;;;-0.41;100.00
13968;BME280;39536;52.198;9.920;2023-03-11T02:43:18;99408.00;;;-0.45;100.00
13968;BME280;39536;52.198;9.920;2023-03-11T02:45:48;99407.13;;;-0.43;100.00
13968;BME280;39536;52.198;9.920;2023-03-11T02:48:15;99410.50;;;-0.38;100.00
13968;BME280;39536;52.198;9.920;2023-03-11T02:50:43;99402.81;;;-0.38;100.00
13968;BME280;39536;52.198;9.920;2023-03-11T02:53:11;99396.91;;;-0.46;100.00
13968;BME280;39536;52.198;9.920;2023-03-11T02:55:38;99419.91;;;-0.43;100.00
13968;BME280;39536;52.198;9.920;2023-03-11T02:58:07;99419.91;;;-0.43;100.00
13968;BME280;39536;52.198;9.920;2023-03-11T03:00:34;99442.09;;;-0.43;100.00
13968;BME280;39536;52.198;9.920;2023-03-11T03:03:02;99405.44;;;-0.47;100.00
13968;BME280;39536;52.198;9.920;2023-03-11T03:05:29;99424.22;;;-0.47;100.00
13968;BME280;39536;52.198;9.920;2023-03-11T03:07:55;99422.50;;;-0.49;100.00
13968;BME280;39536;52.198;9.920;2023-03-11T03:10:22;99448.09;;;-0.49;100.00
13968;BME280;39536;52.198;9.920;2023-03-11T03:12:48;99418.25;;;-0.52;100.00
13968;BME280;39536;52.198;9.920;2023-03-11T03:15:15;99451.47;;;-0.50;100.00
13968;BME280;39536;52.198;9.920;2023-03-11T03:17:41;99433.59;;;-0.50;100.00
13968;BME280;39536;52.198;9.920;2023-03-11T03:20:11;99457.47;;;-0.51;100.00
13968;BME280;39536;52.198;9.920;2023-03-11T03:22:38;99463.44;;;-0.52;100.00
13968;BME280;39536;52.198;9.920;2023-03-11T03:25:06;99466.03;;;-0.55;100.00
13968;BME280;39536;52.198;9.920;2023-03-11T03:27:33;99447.28;;;-0.57;100.00
13968;BME280;39536;52.198;9.920;2023-03-11T03:30:00;99471.13;;;-0.55;100.00
13968;BME280;39536;52.198;9.920;2023-03-11T03:32:27;99471.97;;;-0.55;100.00
13968;BME280;39536;52.198;9.920;2023-03-11T03:34:54;99470.28;;;-0.56;100.00
13968;BME280;39536;52.198;9.920;2023-03-11T03:37:25;99483.91;;;-0.54;100.00
13968;BME280;39536;52.198;9.920;2023-03-11T03:39:52;99472.88;;;-0.59;100.00
13968;BME280;39536;52.198;9.920;2023-03-11T03:42:20;99484.78;;;-0.61;100.00
13968;BME280;39536;52.198;9.920;2023-03-11T03:44:46;99506.09;;;-0.60;100.00
13968;BME280;39536;52.198;9.920;2023-03-11T03:47:13;99484.75;;;-0.56;100.00
13968;BME280;39536;52.198;9.920;2023-03-11T03:49:39;99494.16;;;-0.55;100.00
13968;BME280;39536;52.198;9.920;2023-03-11T03:52:06;99486.50;;;-0.55;100.00
13968;BME280;39536;52.198;9.920;2023-03-11T03:54:36;99501.00;;;-0.62;100.00
13968;BME280;39536;52.198;9.920;2023-03-11T03:57:03;99483.97;;;-0.67;100.00
13968;BME280;39536;52.198;9.920;2023-03-11T03:59:30;99510.41;;;-0.65;100.00
13968;BME280;39536;52.198;9.920;2023-03-11T04:01:56;99522.31;;;-0.66;100.00
13968;BME280;39536;52.198;9.920;2023-03-11T04:04:23;99513.81;;;-0.65;100.00
13968;BME280;39536;52.198;9.920;2023-03-11T04:06:49;99520.59;;;-0.64;100.00
13968;BME280;39536;52.198;9.920;2023-03-11T04:09:16;99511.22;;;-0.63;100.00
13968;BME280;39536;52.198;9.920;2023-03-11T04:11:43;99525.72;;;-0.62;100.00
13968;BME280;39536;52.198;9.920;2023-03-11T04:14:10;99534.22;;;-0.56;100.00
13968;BME280;39536;52.198;9.920;2023-03-11T04:16:37;99539.34;;;-0.56;100.00
13968;BME280;39536;52.198;9.920;2023-03-11T04:19:03;99552.13;;;-0.56;100.00
13968;BME280;39536;52.198;9.920;2023-03-11T04:21:30;99552.13;;;-0.54;100.00
13968;BME280;39536;52.198;9.920;2023-03-11T04:23:57;99563.22;;;-0.55;100.00
13968;BME280;39536;52.198;9.920;2023-03-11T04:26:24;99550.44;;;-0.58;100.00
13968;BME280;39536;52.198;9.920;2023-03-11T04:28:52;99531.69;;;-0.62;100.00
13968;BME280;39536;52.198;9.920;2023-03-11T04:31:18;99546.22;;;-0.68;100.00
13968;BME280;39536;52.198;9.920;2023-03-11T04:33:45;99536.84;;;-0.74;100.00
13968;BME280;39536;52.198;9.920;2023-03-11T04:36:11;99561.56;;;-0.75;100.00
13968;BME280;39536;52.198;9.920;2023-03-11T04:38:38;99547.06;;;-0.76;100.00
13968;BME280;39536;52.198;9.920;2023-03-11T04:41:05;99546.22;;;-0.73;100.00
13968;BME280;39536;52.198;9.920;2023-03-11T04:43:33;99570.06;;;-0.71;100.00
13968;BME280;39536;52.198;9.920;2023-03-11T04:46:00;99573.50;;;-0.74;100.00
13968;BME280;39536;52.198;9.920;2023-03-11T04:48:27;99572.63;;;-0.74;100.00
13968;BME280;39536;52.198;9.920;2023-03-11T04:50:54;99590.53;;;-0.73;100.00
13968;BME280;39536;52.198;9.920;2023-03-11T04:53:20;99580.31;;;-0.71;100.00
13968;BME280;39536;52.198;9.920;2023-03-11T04:55:47;99563.22;;;-0.69;100.00
13968;BME280;39536;52.198;9.920;2023-03-11T04:58:14;99596.50;;;-0.80;100.00
13968;BME280;39536;52.198;9.920;2023-03-11T05:00:41;99586.28;;;-0.74;100.00
13968;BME280;39536;52.198;9.920;2023-03-11T05:03:09;99588.81;;;-0.75;100.00
13968;BME280;39536;52.198;9.920;2023-03-11T05:05:35;99608.44;;;-0.79;100.00
13968;BME280;39536;52.198;9.920;2023-03-11T05:08:02;99599.03;;;-0.78;100.00
13968;BME280;39536;52.198;9.920;2023-03-11T05:10:29;99614.41;;;-0.81;100.00
13968;BME280;39536;52.198;9.920;2023-03-11T05:12:55;99612.72;;;-0.87;100.00
13968;BME280;39536;52.198;9.920;2023-03-11T05:15:22;99623.78;;;-0.85;100.00
13968;BME280;39536;52.198;9.920;2023-03-11T05:17:49;99631.44;;;-0.94;100.00
13968;BME280;39536;52.198;9.920;2023-03-11T05:20:17;99622.94;;;-0.98;100.00
13968;BME280;39536;52.198;9.920;2023-03-11T05:22:44;99639.13;;;-0.99;100.00
13968;BME280;39536;52.198;9.920;2023-03-11T05:25:10;99634.88;;;-0.98;100.00
13968;BME280;39536;52.198;9.920;2023-03-11T05:27:37;99649.34;;;-0.97;100.00
13968;BME280;39536;52.198;9.920;2023-03-11T05:30:05;99636.56;;;-0.93;100.00
13968;BME280;39536;52.198;9.920;2023-03-11T05:32:31;99651.06;;;-0.93;100.00
13968;BME280;39536;52.198;9.920;2023-03-11T05:34:58;99651.91;;;-0.93;100.00
13968;BME280;39536;52.198;9.920;2023-03-11T05:37:26;99660.41;;;-0.87;100.00
13968;BME280;39536;52.198;9.920;2023-03-11T05:39:53;99660.41;;;-0.87;100.00
13968;BME280;39536;52.198;9.920;2023-03-11T05:42:19;99649.34;;;-0.91;100.00
13968;BME280;39536;52.198;9.920;2023-03-11T05:44:46;99653.63;;;-0.90;100.00
13968;BME280;39536;52.198;9.920;2023-03-11T05:47:12;99649.34;;;-0.88;100.00
13968;BME280;39536;52.198;9.920;2023-03-11T05:49:39;99657.03;;;-0.86;100.00
13968;BME280;39536;52.198;9.920;2023-03-11T05:52:06;99664.69;;;-0.83;100.00
13968;BME280;39536;52.198;9.920;2023-03-11T05:54:34;99663.84;;;-0.85;100.00
13968;BME280;39536;52.198;9.920;2023-03-11T05:57:00;99658.72;;;-0.88;100.00
13968;BME280;39536;52.198;9.920;2023-03-11T05:59:27;99671.50;;;-0.78;100.00
13968;BME280;39536;52.198;9.920;2023-03-11T06:01:53;99673.19;;;-0.78;100.00
13968;BME280;39536;52.198;9.920;2023-03-11T06:04:20;99673.19;;;-0.74;100.00
13968;BME280;39536;52.198;9.920;2023-03-11T06:06:46;99678.31;;;-0.67;100.00
13968;BME280;39536;52.198;9.920;2023-03-11T06:09:13;99691.06;;;-0.63;100.00
13968;BME280;39536;52.198;9.920;2023-03-11T06:11:41;99689.38;;;-0.59;100.00
13968;BME280;39536;52.198;9.920;2023-03-11T06:14:10;99703.88;;;-0.52;100.00
13968;BME280;39536;52.198;9.920;2023-03-11T06:16:38;99697.91;;;-0.54;100.00
13968;BME280;39536;52.198;9.920;2023-03-11T06:19:04;99702.16;;;-0.62;100.00
13968;BME280;39536;52.198;9.920;2023-03-11T06:21:31;99693.63;;;-0.60;100.00
13968;BME280;39536;52.198;9.920;2023-03-11T06:23:58;99696.19;;;-0.66;100.00
13968;BME280;39536;52.198;9.920;2023-03-11T06:26:24;99710.72;;;-0.62;100.00
13968;BME280;39536;52.198;9.920;2023-03-11T06:28:52;99723.47;;;-0.66;100.00
13968;BME280;39536;52.198;9.920;2023-03-11T06:31:20;99717.53;;;-0.75;100.00
13968;BME280;39536;52.198;9.920;2023-03-11T06:33:48;99715.81;;;-0.76;100.00
13968;BME280;39536;52.198;9.920;2023-03-11T06:36:16;99719.22;;;-0.71;100.00
13968;BME280;39536;52.198;9.920;2023-03-11T06:38:43;99724.34;;;-0.80;100.00
13968;BME280;39536;52.198;9.920;2023-03-11T06:41:11;99732.00;;;-0.81;100.00
13968;BME280;39536;52.198;9.920;2023-03-11T06:43:38;99737.97;;;-0.78;100.00
13968;BME280;39536;52.198;9.920;2023-03-11T06:46:09;99743.94;;;-0.77;100.00
13968;BME280;39536;52.198;9.920;2023-03-11T06:48:36;99755.03;;;-0.71;100.00
13968;BME280;39536;52.198;9.920;2023-03-11T06:51:03;99750.75;;;-0.64;100.00
13968;BME280;39536;52.198;9.920;2023-03-11T06:53:30;99754.16;;;-0.63;100.00
13968;BME280;39536;52.198;9.920;2023-03-11T06:55:58;99753.31;;;-0.56;100.00
13968;BME280;39536;52.198;9.920;2023-03-11T06:58:24;99767.81;;;-0.49;100.00
13968;BME280;39536;52.198;9.920;2023-03-11T07:00:51;99764.41;;;-0.51;100.00
13968;BME280;39536;52.198;9.920;2023-03-11T07:03:19;99766.94;;;-0.51;100.00
13968;BME280;39536;52.198;9.920;2023-03-11T07:05:49;99772.09;;;-0.53;100.00
13968;BME280;39536;52.198;9.920;2023-03-11T07:08:15;99766.94;;;-0.51;100.00
13968;BME280;39536;52.198;9.920;2023-03-11T07:10:42;99777.19;;;-0.42;100.00
13968;BME280;39536;52.198;9.920;2023-03-11T07:13:09;99786.56;;;-0.42;100.00
13968;BME280;39536;52.198;9.920;2023-03-11T07:15:36;99794.22;;;-0.41;100.00
13968;BME280;39536;52.198;9.920;2023-03-11T07:18:03;99805.31;;;-0.39;100.00
13968;BME280;39536;52.198;9.920;2023-03-11T07:20:30;99808.75;;;-0.40;100.00
13968;BME280;39536;52.198;9.920;2023-03-11T07:22:57;99807.03;;;-0.39;100.00
13968;BME280;39536;52.198;9.920;2023-03-11T07:25:25;99823.22;;;-0.39;100.00
13968;BME280;39536;52.198;9.920;2023-03-11T07:27:54;99818.13;;;-0.36;100.00
13968;BME280;39536;52.198;9.920;2023-03-11T07:30:20;99841.16;;;-0.37;100.00
13968;BME280;39536;52.198;9.920;2023-03-11T07:32:46;99847.97;;;-0.26;100.00
13968;BME280;39536;52.198;9.920;2023-03-11T07:35:13;99836.03;;;-0.27;100.00
13968;BME280;39536;52.198;9.920;2023-03-11T07:37:41;99842.00;;;-0.26;100.00
13968;BME280;39536;52.198;9.920;2023-03-11T07:40:08;99852.22;;;-0.26;100.00
13968;BME280;39536;52.198;9.920;2023-03-11T07:42:35;99853.94;;;-0.24;100.00
13968;BME280;39536;52.198;9.920;2023-03-11T07:45:01;99858.22;;;-0.18;100.00
13968;BME280;39536;52.198;9.920;2023-03-11T07:47:28;99860.75;;;-0.19;100.00
13968;BME280;39536;52.198;9.920;2023-03-11T07:49:55;99882.09;;;-0.24;100.00
13968;BME280;39536;52.198;9.920;2023-03-11T07:52:21;99863.31;;;-0.19;100.00
13968;BME280;39536;52.198;9.920;2023-03-11T07:54:49;99870.16;;;-0.20;100.00
13968;BME280;39536;52.198;9.920;2023-03-11T07:57:16;99878.66;;;-0.26;100.00
13968;BME280;39536;52.198;9.920;2023-03-11T07:59:43;99888.91;;;-0.33;100.00
13968;BME280;39536;52.198;9.920;2023-03-11T08:02:09;99877.81;;;-0.38;100.00
13968;BME280;39536;52.198;9.920;2023-03-11T08:04:36;99896.59;;;-0.19;100.00
13968;BME280;39536;52.198;9.920;2023-03-11T08:07:05;99896.59;;;-0.10;100.00
13968;BME280;39536;52.198;9.920;2023-03-11T08:09:33;99899.16;;;0.02;100.00
13968;BME280;39536;52.198;9.920;2023-03-11T08:12:01;99900.84;;;0.06;100.00
13968;BME280;39536;52.198;9.920;2023-03-11T08:14:27;99899.16;;;0.04;100.00
13968;BME280;39536;52.198;9.920;2023-03-11T08:16:54;99916.22;;;0.08;100.00
13968;BME280;39536;52.198;9.920;2023-03-11T08:19:20;99911.97;;;0.16;100.00
13968;BME280;39536;52.198;9.920;2023-03-11T08:21:47;99923.88;;;0.12;100.00
13968;BME280;39536;52.198;9.920;2023-03-11T08:24:13;99923.06;;;-0.02;100.00
13968;BME280;39536;52.198;9.920;2023-03-11T08:26:41;99941.84;;;-0.06;100.00
13968;BME280;39536;52.198;9.920;2023-03-11T08:29:09;99940.09;;;-0.16;100.00
13968;BME280;39536;52.198;9.920;2023-03-11T08:31:35;99940.97;;;-0.17;100.00
13968;BME280;39536;52.198;9.920;2023-03-11T08:34:03;99951.16;;;-0.28;100.00
13968;BME280;39536;52.198;9.920;2023-03-11T08:36:30;99945.22;;;-0.18;100.00
13968;BME280;39536;52.198;9.920;2023-03-11T08:38:58;99955.47;;;-0.07;100.00
13968;BME280;39536;52.198;9.920;2023-03-11T08:41:25;99958.06;;;0.13;100.00
13968;BME280;39536;52.198;9.920;2023-03-11T08:43:52;99961.47;;;0.16;100.00
13968;BME280;39536;52.198;9.920;2023-03-11T08:46:23;99969.97;;;0.15;100.00
13968;BME280;39536;52.198;9.920;2023-03-11T08:48:50;99968.28;;;0.17;100.00
13968;BME280;39536;52.198;9.920;2023-03-11T08:51:16;99975.13;;;0.34;100.00
13968;BME280;39536;52.198;9.920;2023-03-11T08:53:43;99981.13;;;0.25;100.00
13968;BME280;39536;52.198;9.920;2023-03-11T08:56:09;99976.84;;;0.32;100.00
13968;BME280;39536;52.198;9.920;2023-03-11T08:58:36;99991.34;;;0.37;100.00
13968;BME280;39536;52.198;9.920;2023-03-11T09:01:03;99996.47;;;0.37;100.00
13968;BME280;39536;52.198;9.920;2023-03-11T09:03:32;99998.19;;;0.44;100.00
13968;BME280;39536;52.198;9.920;2023-03-11T09:06:00;100002.47;;;0.41;100.00
13968;BME280;39536;52.198;9.920;2023-03-11T09:08:27;100007.56;;;0.55;100.00
13968;BME280;39536;52.198;9.920;2023-03-11T09:10:54;100005.84;;;0.64;100.00
13968;BME280;39536;52.198;9.920;2023-03-11T09:13:20;100006.72;;;0.69;100.00
13968;BME280;39536;52.198;9.920;2023-03-11T09:15:48;100007.53;;;0.72;100.00
13968;BME280;39536;52.198;9.920;2023-03-11T09:18:16;100005.00;;;0.64;100.00
13968;BME280;39536;52.198;9.920;2023-03-11T09:20:44;100011.84;;;0.60;100.00
13968;BME280;39536;52.198;9.920;2023-03-11T09:23:12;100004.97;;;0.82;100.00
13968;BME280;39536;52.198;9.920;2023-03-11T09:25:39;100028.03;;;0.95;100.00
13968;BME280;39536;52.198;9.920;2023-03-11T09:28:06;100015.22;;;0.91;100.00
13968;BME280;39536;52.198;9.920;2023-03-11T09:30:32;100019.47;;;1.05;100.00
13968;BME280;39536;52.198;9.920;2023-03-11T09:32:59;100028.00;;;1.02;100.00
13968;BME280;39536;52.198;9.920;2023-03-11T09:35:26;100020.31;;;1.02;100.00
13968;BME280;39536;52.198;9.920;2023-03-11T09:37:54;100029.69;;;1.14;100.00
13968;BME280;39536;52.198;9.920;2023-03-11T09:40:22;100022.81;;;1.28;100.00
13968;BME280;39536;52.198;9.920;2023-03-11T09:42:56;100030.56;;;1.16;100.00
13968;BME280;39536;52.198;9.920;2023-03-11T09:45:31;100018.56;;;1.23;100.00
13968;BME280;39536;52.198;9.920;2023-03-11T09:48:10;100032.22;;;1.31;100.00
13968;BME280;39536;52.198;9.920;2023-03-11T09:50:44;100033.09;;;1.22;100.00
13968;BME280;39536;52.198;9.920;2023-03-11T09:53:29;100050.22;;;1.15;100.00
13968;BME280;39536;52.198;9.920;2023-03-11T09:56:01;100051.94;;;1.17;100.00
13968;BME280;39536;52.198;9.920;2023-03-11T09:58:36;100054.47;;;1.09;100.00
13968;BME280;39536;52.198;9.920;2023-03-11T10:01:13;100057.06;;;1.04;100.00
13968;BME280;39536;52.198;9.920;2023-03-11T10:03:40;100057.91;;;1.19;100.00
13968;BME280;39536;52.198;9.920;2023-03-11T10:06:13;100066.44;;;1.18;100.00
13968;BME280;39536;52.198;9.920;2023-03-11T10:08:50;100074.13;;;1.28;100.00
13968;BME280;39536;52.198;9.920;2023-03-11T10:11:40;100063.91;;;1.16;100.00
13968;BME280;39536;52.198;9.920;2023-03-11T10:14:17;100060.38;;;1.43;100.00
13968;BME280;39536;52.198;9.920;2023-03-11T10:16:54;100075.84;;;1.31;100.00
13968;BME280;39536;52.198;9.920;2023-03-11T10:19:29;100062.97;;;1.45;100.00
13968;BME280;39536;52.198;9.920;2023-03-11T10:22:10;100062.09;;;1.47;100.00
13968;BME280;39536;52.198;9.920;2023-03-11T10:24:58;100066.34;;;1.60;100.00
13968;BME280;39536;52.198;9.920;2023-03-11T10:27:31;100096.28;;;1.52;100.00
13968;BME280;39536;52.198;9.920;2023-03-11T10:30:05;100063.84;;;1.30;100.00
13968;BME280;39536;52.198;9.920;2023-03-11T10:32:39;100069.81;;;1.36;100.00
13968;BME280;39536;52.198;9.920;2023-03-11T10:35:20;100077.50;;;1.50;100.00
13968;BME280;39536;52.198;9.920;2023-03-11T10:37:51;100064.63;;;1.52;100.00
13968;BME280;39536;52.198;9.920;2023-03-11T10:40:25;100062.88;;;1.61;100.00
13968;BME280;39536;52.198;9.920;2023-03-11T10:42:55;100067.97;;;1.74;100.00
13968;BME280;39536;52.198;9.920;2023-03-11T10:45:22;100068.88;;;1.70;100.00
13968;BME280;39536;52.198;9.920;2023-03-11T10:47:49;100073.88;;;1.93;100.00
13968;BME280;39536;52.198;9.920;2023-03-11T10:50:17;100071.16;;;2.22;100.00
13968;BME280;39536;52.198;9.920;2023-03-11T10:53:04;100080.53;;;2.29;100.00
13968;BME280;39536;52.198;9.920;2023-03-11T10:55:33;100069.50;;;2.13;100.00
13968;BME280;39536;52.198;9.920;2023-03-11T10:58:05;100081.44;;;2.20;100.00
13968;BME280;39536;52.198;9.920;2023-03-11T11:00:32;100079.75;;;2.16;100.00
13968;BME280;39536;52.198;9.920;2023-03-11T11:02:59;100095.16;;;2.18;100.00
13968;BME280;39536;52.198;9.920;2023-03-11T11:05:28;100095.28;;;1.98;100.00
13968;BME280;39536;52.198;9.920;2023-03-11T11:08:06;100090.16;;;1.92;100.00
13968;BME280;39536;52.198;9.920;2023-03-11T11:10:36;100095.19;;;2.08;100.00
13968;BME280;39536;52.198;9.920;2023-03-11T11:13:17;100094.44;;;1.90;100.00
13968;BME280;39536;52.198;9.920;2023-03-11T11:15:55;100103.81;;;1.98;100.00
13968;BME280;39536;52.198;9.920;2023-03-11T11:18:24;100097.75;;;2.12;100.00
13968;BME280;39536;52.198;9.920;2023-03-11T11:21:01;100100.34;;;2.10;100.00
13968;BME280;39536;52.198;9.920;2023-03-11T11:23:32;100098.66;;;2.09;100.00
13968;BME280;39536;52.198;9.920;2023-03-11T11:26:02;100097.69;;;2.25;100.00
13968;BME280;39536;52.198;9.920;2023-03-11T11:28:31;100083.88;;;2.46;100.00
13968;BME280;39536;52.198;9.920;2023-03-11T11:30:59;100089.91;;;2.38;100.00
13968;BME280;39536;52.198;9.920;2023-03-11T11:33:28;100096.59;;;2.60;100.00
13968;BME280;39536;52.198;9.920;2023-03-11T11:35:57;100108.69;;;2.46;100.00
13968;BME280;39536;52.198;9.920;2023-03-11T11:38:27;100099.09;;;2.68;100.00
13968;BME280;39536;52.198;9.920;2023-03-11T11:40:56;100111.22;;;2.53;100.00
13968;BME280;39536;52.198;9.920;2023-03-11T11:43:35;100101.53;;;2.88;100.00
13968;BME280;39536;52.198;9.920;2023-03-11T11:46:14;100098.91;;;2.94;100.00
13968;BME280;39536;52.198;9.920;2023-03-11T11:48:47;100104.94;;;2.91;100.00
13968;BME280;39536;52.198;9.920;2023-03-11T11:51:20;100095.38;;;3.06;100.00
13968;BME280;39536;52.198;9.920;2023-03-11T11:53:51;100100.56;;;3.01;100.00
13968;BME280;39536;52.198;9.920;2023-03-11T11:56:22;100107.41;;;3.02;100.00
13968;BME280;39536;52.198;9.920;2023-03-11T11:58:51;100106.59;;;3.00;100.00
13968;BME280;39536;52.198;9.920;2023-03-11T12:01:25;100110.06;;;2.94;100.00
13968;BME280;39536;52.198;9.920;2023-03-11T12:04:24;100107.47;;;2.97;100.00
13968;BME280;39536;52.198;9.920;2023-03-11T12:06:59;100083.38;;;3.06;100.00
13968;BME280;39536;52.198;9.920;2023-03-11T12:09:34;100105.81;;;2.90;100.00
13968;BME280;39536;52.198;9.920;2023-03-11T12:12:08;100115.91;;;3.12;100.00
13968;BME280;39536;52.198;9.920;2023-03-11T12:14:45;100096.97;;;3.19;100.00
13968;BME280;39536;52.198;9.920;2023-03-11T12:17:15;100096.78;;;3.37;100.00
13968;BME280;39536;52.198;9.920;2023-03-11T12:19:53;100093.31;;;3.43;100.00
13968;BME280;39536;52.198;9.920;2023-03-11T12:25:25;100086.88;;;3.79;100.00
13968;BME280;39536;52.198;9.920;2023-03-11T12:28:00;100098.09;;;3.75;100.00
13968;BME280;39536;52.198;9.920;2023-03-11T12:30:31;100090.22;;;3.86;100.00
13968;BME280;39536;52.198;9.920;2023-03-11T12:33:02;100105.59;;;3.92;100.00
13968;BME280;39536;52.198;9.920;2023-03-11T12:35:31;100092.81;;;3.83;100.00
13968;BME280;39536;52.198;9.920;2023-03-11T12:38:03;100097.28;;;3.70;100.00
13968;BME280;39536;52.198;9.920;2023-03-11T12:40:46;100098.91;;;3.79;100.00
13968;BME280;39536;52.198;9.920;2023-03-11T12:43:27;100088.50;;;3.86;100.00
13968;BME280;39536;52.198;9.920;2023-03-11T12:46:15;100093.63;;;3.89;100.00
13968;BME280;39536;52.198;9.920;2023-03-11T12:48:43;100110.97;;;3.75;100.00
13968;BME280;39536;52.198;9.920;2023-03-11T12:51:38;100090.47;;;3.66;100.00
13968;BME280;39536;52.198;9.920;2023-03-11T12:54:26;100088.28;;;4.03;100.00
13968;BME280;39536;52.198;9.920;2023-03-11T12:56:54;100085.94;;;3.85;100.00
13968;BME280;39536;52.198;9.920;2023-03-11T12:59:39;100091.13;;;3.83;100.00
13968;BME280;39536;52.198;9.920;2023-03-11T13:02:25;100094.47;;;3.88;100.00